Time;durP1;ratioP1;P1;durP2;ratioP2;P2;SDS_P1;SDS_P2;PMS_P1;PMS_P2;Temp;Humidity;BMP_temperature;BMP_pressure;BME280_temperature;BME280_humidity;BME280_pressure;Samples;Min_cycle;Max_cycle;Signal;HPM_P1;HPM_P2
2022/03/13 00:02:08;;;;;;;20.73;10.10;;;;;;;10.71;52.41;101214.03;5087893;28;20056;-72
2022/03/13 00:04:36;;;;;;;23.67;10.50;;;;;;;10.69;52.03;101216.38;5094231;28;20508;-74
2022/03/13 00:07:09;;;;;;;24.30;10.45;;;;;;;10.67;52.40;101213.22;5090560;28;20090;-72
2022/03/13 00:09:37;;;;;;;26.48;10.10;;;;;;;10.67;51.94;101221.53;5098350;28;20052;-74
2022/03/13 00:12:08;;;;;;;22.67;9.60;;;;;;;10.67;51.86;101210.44;5092864;28;20528;-73
2022/03/13 00:14:42;;;;;;;23.55;10.55;;;;;;;10.66;51.76;101206.06;5100858;28;20059;-71
2022/03/13 00:17:14;;;;;;;22.95;10.25;;;;;;;10.66;51.84;101214.38;5088756;28;20048;-72
2022/03/13 00:19:41;;;;;;;22.80;10.98;;;;;;;10.62;51.69;101207.22;5092498;28;20159;-71
2022/03/13 00:22:09;;;;;;;26.05;11.57;;;;;;;10.59;52.24;101211.56;5090848;28;20063;-74
2022/03/13 00:24:36;;;;;;;23.58;10.80;;;;;;;10.57;52.16;101207.59;5089230;28;20736;-73
2022/03/13 00:27:03;;;;;;;20.45;10.15;;;;;;;10.51;52.27;101209.94;5088622;28;20552;-73
2022/03/13 00:29:30;;;;;;;22.70;10.73;;;;;;;10.52;52.37;101217.06;5088003;28;20086;-72
2022/03/13 00:31:57;;;;;;;23.75;10.45;;;;;;;10.45;52.40;101212.28;5087114;28;20055;-71
2022/03/13 00:34:24;;;;;;;20.98;10.20;;;;;;;10.46;52.08;101207.50;5086381;28;20052;-71
2022/03/13 00:36:50;;;;;;;23.58;11.05;;;;;;;10.43;52.04;101206.31;5087180;28;20062;-72
2022/03/13 00:39:17;;;;;;;25.90;11.68;;;;;;;10.41;52.22;101214.22;5088696;28;20058;-72
2022/03/13 00:41:46;;;;;;;18.35;8.00;;;;;;;10.37;52.14;101213.38;5089356;28;20806;-71
2022/03/13 00:44:13;;;;;;;9.75;4.72;;;;;;;10.39;51.70;101224.06;5103975;28;20126;-73
2022/03/13 00:46:40;;;;;;;6.90;2.63;;;;;;;10.44;51.54;101218.97;5088435;28;20103;-72
2022/03/13 00:49:07;;;;;;;23.75;10.40;;;;;;;10.48;51.34;101217.03;5089136;28;20504;-71
2022/03/13 00:51:33;;;;;;;18.85;9.10;;;;;;;10.42;51.36;101220.53;5078615;28;20401;-72
2022/03/13 00:54:00;;;;;;;22.00;9.63;;;;;;;10.40;51.37;101220.13;5082076;28;20548;-72
2022/03/13 00:56:26;;;;;;;23.48;7.93;;;;;;;10.35;51.04;101206.66;5092105;28;20518;-72
2022/03/13 00:58:53;;;;;;;6.20;3.13;;;;;;;10.30;51.04;101207.78;5094827;28;20051;-71
2022/03/13 01:01:19;;;;;;;19.35;9.38;;;;;;;10.34;50.67;101205.88;5096152;28;20047;-74
2022/03/13 01:03:49;;;;;;;20.15;8.85;;;;;;;10.34;50.61;101214.19;5088802;28;20125;-72
2022/03/13 01:06:17;;;;;;;9.98;3.83;;;;;;;10.34;50.03;101211.41;5087650;28;20154;-72
2022/03/13 01:08:46;;;;;;;26.27;10.20;;;;;;;10.37;50.19;101204.31;5082788;28;20044;-72
2022/03/13 01:11:18;;;;;;;22.67;10.20;;;;;;;10.32;50.29;101199.91;5093930;28;20047;-72
2022/03/13 01:13:45;;;;;;;24.30;9.95;;;;;;;10.34;50.33;101199.53;5096192;28;20050;-72
2022/03/13 01:16:17;;;;;;;22.63;9.98;;;;;;;10.19;51.14;101195.88;5097750;28;20059;-71
2022/03/13 01:18:47;;;;;;;21.38;9.63;;;;;;;10.15;50.71;101205.31;5103649;28;20052;-71
2022/03/13 01:21:14;;;;;;;22.25;10.10;;;;;;;10.12;50.39;101203.31;5094685;28;20673;-72
2022/03/13 01:23:41;;;;;;;24.17;10.70;;;;;;;10.14;50.67;101206.50;5093424;28;20147;-72
2022/03/13 01:26:23;;;;;;;22.20;10.32;;;;;;;10.04;51.43;101196.09;5086757;28;20093;-71
2022/03/13 01:28:58;;;;;;;25.08;11.35;;;;;;;9.99;51.62;101199.22;5088434;28;20622;-72
2022/03/13 01:31:30;;;;;;;27.30;11.90;;;;;;;9.92;51.95;101182.56;5102828;28;20079;-71
2022/03/13 01:33:57;;;;;;;31.67;10.20;;;;;;;9.89;52.19;101189.66;5089591;28;20074;-72
2022/03/13 01:36:24;;;;;;;21.67;10.20;;;;;;;9.77;52.44;101180.84;5094971;28;20523;-72
2022/03/13 01:38:54;;;;;;;31.45;13.38;;;;;;;9.70;53.12;101181.59;5103777;28;20048;-76
2022/03/13 01:41:22;;;;;;;25.50;11.63;;;;;;;9.63;52.96;101164.13;5083892;28;20060;-72
2022/03/13 01:43:49;;;;;;;26.60;11.45;;;;;;;9.58;53.31;101184.59;5086010;28;20039;-71
2022/03/13 01:46:15;;;;;;;23.90;10.35;;;;;;;9.55;53.30;101181.81;5094524;28;20580;-74
2022/03/13 01:48:53;;;;;;;21.90;10.18;;;;;;;9.49;53.61;101167.53;5089234;28;20055;-71
2022/03/13 01:51:20;;;;;;;23.83;10.35;;;;;;;9.44;54.09;101167.88;5079799;28;20080;-71
2022/03/13 01:53:51;;;;;;;24.10;11.73;;;;;;;9.39;54.03;101170.19;5099586;28;20058;-70
2022/03/13 01:56:18;;;;;;;20.13;9.45;;;;;;;9.30;53.53;101158.66;5095347;28;20139;-72
2022/03/13 01:58:49;;;;;;;22.92;9.90;;;;;;;9.21;53.86;101161.72;5085417;28;20135;-72
2022/03/13 02:01:18;;;;;;;21.77;9.82;;;;;;;9.14;54.51;101156.09;5087733;28;20134;-72
2022/03/13 02:03:45;;;;;;;24.60;9.98;;;;;;;9.05;55.15;101150.06;5090184;28;20128;-71
2022/03/13 02:06:12;;;;;;;21.60;9.55;;;;;;;9.01;54.87;101142.94;5091305;28;20054;-72
2022/03/13 02:08:40;;;;;;;22.33;9.80;;;;;;;8.92;55.90;101147.97;5100554;28;20051;-71
2022/03/13 02:11:08;;;;;;;20.88;9.68;;;;;;;8.87;56.00;101143.56;5098264;28;20054;-70
2022/03/13 02:13:36;;;;;;;22.33;9.98;;;;;;;8.79;56.44;101138.31;5091609;28;20056;-72
2022/03/13 02:16:04;;;;;;;22.30;9.40;;;;;;;8.71;57.62;101140.19;5088939;28;20048;-74
2022/03/13 02:18:31;;;;;;;24.27;10.43;;;;;;;8.59;57.82;101137.69;5092850;28;20394;-71
2022/03/13 02:20:58;;;;;;;21.40;9.90;;;;;;;8.51;58.82;101130.50;5095481;28;20047;-72
2022/03/13 02:23:26;;;;;;;22.10;9.95;;;;;;;8.45;58.27;101125.66;5093953;28;20463;-72
2022/03/13 02:25:58;;;;;;;21.50;10.32;;;;;;;8.39;58.47;101125.19;5102436;28;20122;-74
2022/03/13 02:28:27;;;;;;;21.75;9.43;;;;;;;8.32;58.17;101116.81;5089715;28;20050;-71
2022/03/13 02:30:58;;;;;;;24.48;11.93;;;;;;;8.24;58.92;101112.38;5090305;28;20130;-72
2022/03/13 02:33:25;;;;;;;25.98;9.65;;;;;;;8.19;58.54;101112.66;5092114;28;20044;-72
2022/03/13 02:36:00;;;;;;;20.00;9.43;;;;;;;8.07;60.48;101112.88;5087999;28;20059;-73
2022/03/13 02:38:29;;;;;;;24.95;10.02;;;;;;;7.94;59.66;101117.00;5089706;28;20122;-71
2022/03/13 02:40:57;;;;;;;21.10;10.23;;;;;;;7.95;59.70;101118.59;5087926;28;20567;-75
2022/03/13 02:43:25;;;;;;;24.85;11.07;;;;;;;7.96;59.84;101115.47;5067074;28;20060;-73
2022/03/13 02:45:54;;;;;;;24.17;10.25;;;;;;;7.93;60.25;101115.38;5086218;28;20052;-70
2022/03/13 02:48:21;;;;;;;23.25;10.70;;;;;;;7.88;60.77;101101.94;5089093;28;20159;-70
2022/03/13 02:50:48;;;;;;;20.50;9.30;;;;;;;7.90;60.23;101105.13;5083683;28;20043;-72
2022/03/13 02:53:17;;;;;;;21.30;9.80;;;;;;;7.84;60.53;101101.09;5085534;28;20159;-73
2022/03/13 02:55:45;;;;;;;23.60;10.02;;;;;;;7.77;61.01;101099.00;5085694;28;20072;-71
2022/03/13 02:58:12;;;;;;;20.42;9.73;;;;;;;7.72;61.31;101095.78;5091513;28;20044;-71
2022/03/13 03:00:50;;;;;;;22.63;9.90;;;;;;;7.66;63.27;101095.28;5091165;28;20056;-71
2022/03/13 03:03:21;;;;;;;23.02;10.35;;;;;;;7.67;62.62;101090.59;5088544;28;20160;-71
2022/03/13 03:05:49;;;;;;;22.50;10.30;;;;;;;7.65;63.19;101092.91;5090433;28;20470;-72
2022/03/13 03:08:16;;;;;;;20.92;10.45;;;;;;;7.58;62.66;101090.03;5098793;28;20059;-71
2022/03/13 03:10:43;;;;;;;22.70;10.05;;;;;;;7.52;61.89;101088.75;5090781;28;20163;-72
2022/03/13 03:13:11;;;;;;;21.52;10.43;;;;;;;7.42;61.54;101092.91;5092532;28;20083;-71
2022/03/13 03:15:41;;;;;;;24.30;10.48;;;;;;;7.31;63.86;101094.69;5090717;28;20080;-72
2022/03/13 03:18:12;;;;;;;22.65;10.48;;;;;;;7.32;64.60;101095.47;5089685;28;20056;-73
2022/03/13 03:20:39;;;;;;;23.88;10.30;;;;;;;7.25;65.60;101095.34;5090286;28;20139;-71
2022/03/13 03:23:07;;;;;;;22.77;10.90;;;;;;;7.21;66.83;101100.78;5089389;28;20047;-71
2022/03/13 03:25:33;;;;;;;26.92;11.25;;;;;;;7.15;67.26;101102.25;5092658;28;20043;-72
2022/03/13 03:28:00;;;;;;;22.85;10.82;;;;;;;7.15;66.93;101101.44;5094846;28;20052;-71
2022/03/13 03:30:29;;;;;;;21.95;10.38;;;;;;;7.16;65.77;101103.06;5089815;28;20127;-72
2022/03/13 03:32:56;;;;;;;23.23;10.82;;;;;;;7.13;65.23;101098.28;5088779;28;20804;-71
2022/03/13 03:35:25;;;;;;;24.23;10.60;;;;;;;7.07;66.01;101099.72;5087456;28;20056;-73
2022/03/13 03:37:52;;;;;;;23.02;11.68;;;;;;;7.04;66.82;101100.44;5088734;28;20505;-73
2022/03/13 03:40:28;;;;;;;23.38;11.43;;;;;;;6.95;67.78;101095.19;5089740;28;20055;-72
2022/03/13 03:42:56;;;;;;;23.67;11.10;;;;;;;6.93;67.46;101100.25;5088594;28;20142;-72
2022/03/13 03:45:23;;;;;;;30.30;10.70;;;;;;;6.90;66.82;101100.19;5089101;28;20147;-71
2022/03/13 03:47:50;;;;;;;22.88;10.43;;;;;;;6.90;66.41;101098.25;5088749;28;20052;-72
2022/03/13 03:50:18;;;;;;;25.95;11.10;;;;;;;6.87;67.65;101095.41;5087912;28;20135;-71
2022/03/13 03:52:45;;;;;;;23.77;11.45;;;;;;;6.80;67.55;101085.06;5088137;28;20075;-72
2022/03/13 03:55:12;;;;;;;25.15;10.73;;;;;;;6.74;67.46;101085.69;5088492;28;20046;-71
2022/03/13 03:57:39;;;;;;;22.00;10.52;;;;;;;6.67;68.59;101086.38;5089656;28;20062;-71
2022/03/13 04:00:07;;;;;;;20.90;10.25;;;;;;;6.62;69.59;101091.38;5088456;28;20499;-71
2022/03/13 04:02:34;;;;;;;24.48;10.75;;;;;;;6.62;68.84;101094.13;5088240;28;20051;-71
2022/03/13 04:05:01;;;;;;;23.00;10.93;;;;;;;6.59;67.55;101095.63;5086442;28;20101;-71
2022/03/13 04:07:27;;;;;;;22.23;10.73;;;;;;;6.55;67.72;101094.75;5092054;28;20071;-70
2022/03/13 04:09:53;;;;;;;21.30;10.35;;;;;;;6.50;67.75;101089.53;5092118;28;20078;-70
2022/03/13 04:12:20;;;;;;;21.35;10.65;;;;;;;6.44;69.03;101082.75;5087605;28;20780;-71
2022/03/13 04:14:46;;;;;;;22.52;11.05;;;;;;;6.39;69.63;101084.97;5087987;28;20135;-73
2022/03/13 04:17:13;;;;;;;25.70;11.32;;;;;;;6.37;69.61;101084.53;5087132;28;20556;-71
2022/03/13 04:19:39;;;;;;;25.35;11.90;;;;;;;6.25;69.12;101087.44;5086105;28;20082;-70
2022/03/13 04:22:12;;;;;;;22.52;10.98;;;;;;;6.16;69.55;101086.81;5084004;28;20142;-71
2022/03/13 04:24:39;;;;;;;25.40;11.38;;;;;;;6.11;70.22;101090.63;5086590;28;20047;-70
2022/03/13 04:27:06;;;;;;;25.23;11.75;;;;;;;6.08;71.44;101088.63;5088331;28;20628;-70
2022/03/13 04:29:32;;;;;;;22.50;9.88;;;;;;;6.08;70.82;101079.59;5087035;28;20047;-71
2022/03/13 04:31:59;;;;;;;22.52;10.00;;;;;;;6.07;69.60;101080.75;5088765;28;20089;-72
2022/03/13 04:34:26;;;;;;;22.73;10.50;;;;;;;6.02;69.21;101073.56;5087622;28;20093;-71
2022/03/13 04:36:52;;;;;;;24.65;11.07;;;;;;;5.98;69.17;101074.63;5087586;28;20051;-71
2022/03/13 04:39:19;;;;;;;25.17;11.20;;;;;;;5.93;69.65;101074.91;5087249;28;20131;-71
2022/03/13 04:41:45;;;;;;;21.42;10.27;;;;;;;5.87;70.27;101066.13;5087781;28;20083;-72
2022/03/13 04:44:18;;;;;;;22.02;10.57;;;;;;;5.85;70.58;101062.97;5087520;28;20135;-71
2022/03/13 04:46:44;;;;;;;25.88;12.18;;;;;;;5.81;70.61;101080.47;5087057;28;20113;-71
2022/03/13 04:49:11;;;;;;;23.40;11.88;;;;;;;5.75;70.44;101079.16;5086577;28;20123;-71
2022/03/13 04:51:39;;;;;;;29.67;11.60;;;;;;;5.71;70.68;101081.84;5087098;28;20523;-73
2022/03/13 04:54:07;;;;;;;23.58;10.98;;;;;;;5.61;72.02;101085.13;5087891;28;20104;-72
2022/03/13 04:56:34;;;;;;;26.10;11.32;;;;;;;5.62;72.18;101091.38;5087223;28;20044;-72
2022/03/13 04:59:00;;;;;;;24.50;12.00;;;;;;;5.57;71.41;101092.44;5087777;28;20048;-73
2022/03/13 05:01:27;;;;;;;25.98;12.13;;;;;;;5.51;72.64;101088.38;5087400;28;20419;-71
2022/03/13 05:03:54;;;;;;;22.60;10.63;;;;;;;5.47;73.81;101089.44;5083942;28;20080;-71
2022/03/13 05:06:20;;;;;;;23.92;11.20;;;;;;;5.48;73.55;101095.38;5078244;28;20052;-71
2022/03/13 05:08:49;;;;;;;25.35;11.38;;;;;;;5.44;73.24;101093.69;5098715;28;20054;-72
2022/03/13 05:11:16;;;;;;;21.48;10.93;;;;;;;5.42;75.08;101096.00;5087079;28;20446;-71
2022/03/13 05:13:43;;;;;;;22.80;10.52;;;;;;;5.41;74.41;101099.91;5087443;28;20052;-72
2022/03/13 05:16:12;;;;;;;27.83;14.23;;;;;;;5.46;73.06;101096.09;5086575;28;20055;-71
2022/03/13 05:18:39;;;;;;;28.45;11.32;;;;;;;5.50;72.55;101099.72;5087404;28;20044;-70
2022/03/13 05:21:05;;;;;;;29.38;12.50;;;;;;;5.43;73.44;101103.88;5087376;28;20055;-71
2022/03/13 05:23:32;;;;;;;26.40;11.98;;;;;;;5.43;73.58;101105.03;5085994;28;20056;-70
2022/03/13 05:25:58;;;;;;;26.80;11.00;;;;;;;5.43;73.10;101110.53;5087497;28;20139;-71
2022/03/13 05:28:25;;;;;;;24.38;12.15;;;;;;;5.41;73.66;101097.16;5086689;28;20135;-71
2022/03/13 05:30:52;;;;;;;27.25;12.82;;;;;;;5.34;72.46;101099.72;5085836;28;20056;-72
2022/03/13 05:33:18;;;;;;;27.02;12.32;;;;;;;5.30;74.07;101104.31;5087166;28;20048;-71
2022/03/13 05:35:45;;;;;;;23.00;11.45;;;;;;;5.27;73.85;101089.34;5085746;28;20071;-71
2022/03/13 05:38:11;;;;;;;24.48;11.15;;;;;;;5.22;73.22;101091.53;5085805;28;20056;-71
2022/03/13 05:40:40;;;;;;;27.73;11.50;;;;;;;5.17;74.25;101091.81;5087544;28;20069;-71
2022/03/13 05:43:06;;;;;;;24.35;11.60;;;;;;;5.16;73.24;101087.47;5081778;28;20060;-71
2022/03/13 05:45:33;;;;;;;24.35;11.55;;;;;;;5.13;72.79;101090.94;5087058;28;20075;-71
2022/03/13 05:48:13;;;;;;;27.02;13.10;;;;;;;5.07;71.96;101084.88;5086005;28;20587;-73
2022/03/13 05:50:39;;;;;;;24.30;11.88;;;;;;;5.01;73.39;101091.78;5087281;28;20420;-71
2022/03/13 05:53:06;;;;;;;25.63;12.23;;;;;;;5.00;73.93;101090.19;5086961;28;20093;-71
2022/03/13 05:55:33;;;;;;;24.35;11.40;;;;;;;5.00;73.81;101092.91;5084771;28;20083;-72
2022/03/13 05:58:03;;;;;;;26.60;12.13;;;;;;;4.98;74.54;101089.75;5094078;28;20170;-71
2022/03/13 06:00:32;;;;;;;28.45;11.32;;;;;;;4.88;73.72;101097.69;5093740;28;20127;-71
2022/03/13 06:03:00;;;;;;;24.42;10.07;;;;;;;4.63;76.45;101102.44;5090860;28;20076;-73
2022/03/13 06:05:27;;;;;;;25.75;12.50;;;;;;;4.67;76.23;101089.66;5089726;28;20075;-72
2022/03/13 06:07:57;;;;;;;25.70;12.60;;;;;;;4.78;75.24;101092.69;5090878;28;20083;-71
2022/03/13 06:10:24;;;;;;;25.48;12.57;;;;;;;4.81;75.39;101083.78;5089192;28;20545;-70
2022/03/13 06:12:50;;;;;;;33.00;13.63;;;;;;;4.85;75.32;101090.16;5088709;28;20048;-72
2022/03/13 06:15:18;;;;;;;25.77;11.65;;;;;;;4.80;76.20;101096.66;5090398;28;20098;-71
2022/03/13 06:17:48;;;;;;;28.17;13.38;;;;;;;4.79;76.20;101100.56;5090993;28;20131;-72
2022/03/13 06:20:16;;;;;;;30.85;13.55;;;;;;;4.88;76.11;101092.19;5089644;28;20155;-73
2022/03/13 06:22:44;;;;;;;27.90;14.52;;;;;;;4.97;74.71;101096.38;5089655;28;20563;-74
2022/03/13 06:25:12;;;;;;;27.55;13.27;;;;;;;5.05;75.36;101100.09;5090839;28;20134;-73
2022/03/13 06:27:39;;;;;;;28.38;13.50;;;;;;;5.09;74.50;101092.75;5089434;28;20090;-71
2022/03/13 06:30:16;;;;;;;32.20;14.15;;;;;;;5.16;74.21;101099.25;5090282;28;20492;-71
2022/03/13 06:32:47;;;;;;;29.27;14.18;;;;;;;5.22;73.97;101100.59;5088044;28;20067;-74
2022/03/13 06:35:15;;;;;;;26.70;13.82;;;;;;;5.26;74.46;101101.47;5087132;28;20043;-71
2022/03/13 06:37:42;;;;;;;28.85;12.85;;;;;;;5.28;74.58;101095.63;5087173;28;20601;-73
2022/03/13 06:40:16;;;;;;;28.45;13.63;;;;;;;5.30;73.95;101093.34;5090048;28;20667;-71
2022/03/13 06:42:42;;;;;;;31.08;15.35;;;;;;;5.28;73.21;101096.44;5088067;28;20060;-70
2022/03/13 06:45:10;;;;;;;28.30;14.73;;;;;;;5.26;71.80;101095.97;5083949;28;20050;-71
2022/03/13 06:47:44;;;;;;;27.38;14.15;;;;;;;5.21;71.86;101087.22;5089946;28;20146;-70
2022/03/13 06:50:15;;;;;;;29.67;14.35;;;;;;;5.34;71.84;101095.00;5090198;28;20058;-71
2022/03/13 06:52:42;;;;;;;30.13;15.18;;;;;;;5.43;71.28;101097.56;5089306;28;20052;-70
2022/03/13 06:55:13;;;;;;;30.90;14.23;;;;;;;5.52;70.62;101100.97;5088732;28;20044;-71
2022/03/13 06:57:41;;;;;;;31.23;15.07;;;;;;;5.58;69.67;101105.03;5087481;28;20473;-71
2022/03/13 07:00:12;;;;;;;25.42;13.23;;;;;;;5.70;69.25;101107.69;5090177;28;20135;-72
2022/03/13 07:02:47;;;;;;;29.33;13.77;;;;;;;5.74;69.99;101107.78;5089523;28;20623;-72
2022/03/13 07:05:15;;;;;;;31.35;14.10;;;;;;;5.84;69.14;101110.00;5089814;28;20089;-70
2022/03/13 07:07:42;;;;;;;27.52;13.20;;;;;;;5.93;68.09;101116.09;5096332;28;20192;-72
2022/03/13 07:10:12;;;;;;;27.95;14.27;;;;;;;5.97;68.59;101114.25;5107190;28;20125;-71
2022/03/13 07:12:48;;;;;;;28.92;13.93;;;;;;;6.08;67.42;101110.59;5087420;28;20048;-71
2022/03/13 07:15:14;;;;;;;27.88;13.32;;;;;;;6.22;66.21;101115.63;5095255;28;20075;-71
2022/03/13 07:17:44;;;;;;;26.67;13.75;;;;;;;6.33;65.16;101117.44;5087267;28;20566;-72
2022/03/13 07:20:15;;;;;;;31.50;14.27;;;;;;;6.44;64.63;101114.91;5089301;28;20068;-70
2022/03/13 07:22:43;;;;;;;25.85;12.95;;;;;;;6.57;63.98;101113.63;5088775;28;20924;-72
2022/03/13 07:25:14;;;;;;;29.33;14.45;;;;;;;6.66;63.19;101114.22;5090088;28;20131;-73
2022/03/13 07:27:42;;;;;;;27.33;14.35;;;;;;;6.74;63.08;101111.25;5089040;28;20753;-71
2022/03/13 07:30:12;;;;;;;28.73;13.35;;;;;;;6.82;62.52;101115.75;5098390;28;20044;-70
2022/03/13 07:32:42;;;;;;;37.90;13.40;;;;;;;6.89;61.86;101112.34;5087448;28;20048;-70
2022/03/13 07:35:10;;;;;;;32.13;14.82;;;;;;;6.99;62.27;101125.53;5094126;28;20131;-71
2022/03/13 07:37:36;;;;;;;35.45;15.27;;;;;;;7.06;62.15;101129.19;5089233;28;20083;-71
2022/03/13 07:40:05;;;;;;;24.80;11.95;;;;;;;7.14;61.40;101122.69;5088267;28;20084;-72
2022/03/13 07:42:36;;;;;;;27.35;13.00;;;;;;;7.21;61.39;101114.56;5085802;28;20056;-73
2022/03/13 07:45:03;;;;;;;25.02;12.57;;;;;;;7.31;61.27;101121.41;5087324;28;20155;-74
2022/03/13 07:47:31;;;;;;;27.30;12.80;;;;;;;7.38;61.06;101121.53;5087975;28;20062;-71
2022/03/13 07:49:58;;;;;;;26.60;12.95;;;;;;;7.44;60.76;101118.13;5087272;28;20155;-74
2022/03/13 07:52:24;;;;;;;30.10;14.18;;;;;;;7.54;60.29;101124.97;5087108;28;20139;-74
2022/03/13 07:54:56;;;;;;;26.23;13.77;;;;;;;7.64;59.84;101121.63;5087922;28;20048;-75
2022/03/13 07:57:24;;;;;;;26.08;13.73;;;;;;;7.75;59.65;101120.63;5089313;28;20105;-77
2022/03/13 07:59:53;;;;;;;28.30;13.65;;;;;;;7.88;59.15;101122.03;5089080;28;20063;-74
2022/03/13 08:02:20;;;;;;;29.83;14.02;;;;;;;8.03;58.42;101114.75;5087390;28;20056;-76
2022/03/13 08:04:49;;;;;;;26.92;13.02;;;;;;;8.20;57.79;101113.44;5092588;28;20054;-75
2022/03/13 08:07:16;;;;;;;32.92;13.23;;;;;;;8.38;55.28;101109.81;5094137;28;20057;-75
2022/03/13 08:09:42;;;;;;;29.83;12.68;;;;;;;8.55;54.29;101112.03;5096707;28;20396;-74
2022/03/13 08:12:09;;;;;;;27.83;12.43;;;;;;;8.68;54.10;101110.63;5088149;28;20159;-74
2022/03/13 08:14:35;;;;;;;25.90;12.32;;;;;;;8.84;53.29;101108.44;5089023;28;20054;-77
2022/03/13 08:17:03;;;;;;;29.40;13.02;;;;;;;8.97;52.65;101106.22;5089367;28;20135;-75
2022/03/13 08:19:29;;;;;;;29.33;13.23;;;;;;;9.10;52.42;101116.63;5090547;28;20098;-73
2022/03/13 08:21:56;;;;;;;31.58;13.43;;;;;;;9.17;51.60;101102.91;5090034;28;20056;-74
2022/03/13 08:24:23;;;;;;;27.58;13.50;;;;;;;9.37;51.32;101109.00;5088659;28;20175;-76
2022/03/13 08:26:49;;;;;;;26.27;12.00;;;;;;;9.46;51.06;101104.78;5086631;28;20052;-73
2022/03/13 08:29:16;;;;;;;26.02;12.43;;;;;;;9.60;50.95;101106.88;5086170;28;20131;-76
2022/03/13 08:31:42;;;;;;;27.65;13.13;;;;;;;9.71;50.42;101111.31;5086341;28;20872;-73
2022/03/13 08:34:10;;;;;;;28.42;13.80;;;;;;;9.83;49.92;101101.94;5088709;28;20044;-73
2022/03/13 08:36:38;;;;;;;29.13;13.25;;;;;;;9.97;48.71;101105.63;5087911;28;20064;-73
2022/03/13 08:39:05;;;;;;;26.38;12.32;;;;;;;10.07;48.40;101093.06;5088650;28;20072;-73
2022/03/13 08:41:33;;;;;;;27.58;12.88;;;;;;;10.20;48.73;101095.13;5081842;28;20091;-72
2022/03/13 08:43:59;;;;;;;27.10;12.27;;;;;;;10.34;48.12;101105.50;5086011;28;20134;-73
2022/03/13 08:46:26;;;;;;;28.35;13.02;;;;;;;10.45;47.01;101106.34;5086824;28;20135;-72
2022/03/13 08:48:53;;;;;;;24.02;11.68;;;;;;;10.61;46.77;101097.72;5087056;28;20524;-74
2022/03/13 08:51:21;;;;;;;25.90;12.23;;;;;;;10.81;46.59;101099.00;5087809;28;20107;-73
2022/03/13 08:53:48;;;;;;;27.20;12.07;;;;;;;11.03;45.79;101092.38;5088122;28;20048;-72
2022/03/13 08:56:15;;;;;;;26.02;12.18;;;;;;;11.25;45.58;101099.53;5087462;28;20082;-74
2022/03/13 08:58:42;;;;;;;27.00;12.98;;;;;;;11.49;44.27;101101.56;5089062;28;20062;-71
2022/03/13 09:01:09;;;;;;;23.77;11.43;;;;;;;11.75;44.15;101106.75;5085772;28;20421;-75
2022/03/13 09:03:36;;;;;;;27.90;12.77;;;;;;;12.02;43.84;101096.84;5086356;28;20126;-72
2022/03/13 09:06:03;;;;;;;26.38;12.85;;;;;;;12.28;43.42;101093.63;5088125;28;20091;-72
2022/03/13 09:08:30;;;;;;;23.63;11.85;;;;;;;12.51;42.92;101088.41;5098555;28;20138;-72
2022/03/13 09:10:56;;;;;;;25.13;13.05;;;;;;;12.61;41.50;101096.72;5087222;28;20127;-75
2022/03/13 09:13:23;;;;;;;24.75;12.52;;;;;;;12.78;41.30;101089.50;5088837;28;20495;-73
2022/03/13 09:15:50;;;;;;;24.88;12.35;;;;;;;12.95;41.67;101086.66;5085302;28;20052;-73
2022/03/13 09:18:17;;;;;;;23.60;11.63;;;;;;;13.24;41.96;101092.88;5086601;28;20052;-74
2022/03/13 09:20:43;;;;;;;23.98;11.20;;;;;;;13.48;39.16;101097.50;5088714;28;20060;-73
2022/03/13 09:23:10;;;;;;;31.70;12.40;;;;;;;13.61;38.90;101090.25;5086666;28;20591;-72
2022/03/13 09:25:38;;;;;;;29.30;14.13;;;;;;;13.80;38.20;101091.69;5077815;28;20048;-72
2022/03/13 09:28:05;;;;;;;29.15;12.25;;;;;;;13.95;36.88;101093.94;5083852;28;20071;-72
2022/03/13 09:30:32;;;;;;;22.85;10.90;;;;;;;14.07;37.10;101098.22;5078519;28;20056;-72
2022/03/13 09:32:58;;;;;;;26.25;12.75;;;;;;;14.28;38.71;101082.09;5086829;28;20083;-72
2022/03/13 09:35:26;;;;;;;26.25;14.05;;;;;;;14.46;37.45;101081.91;5089609;28;20079;-72
2022/03/13 09:37:52;;;;;;;23.70;11.85;;;;;;;14.70;38.82;101078.84;5086314;28;20056;-73
2022/03/13 09:40:19;;;;;;;25.45;12.70;;;;;;;14.89;37.96;101069.06;5090775;28;20036;-72
2022/03/13 09:42:47;;;;;;;25.95;13.45;;;;;;;15.18;37.24;101071.03;5090646;28;20105;-73
2022/03/13 09:45:15;;;;;;;24.02;12.23;;;;;;;15.35;37.12;101074.78;5089551;28;20085;-72
2022/03/13 09:47:41;;;;;;;24.45;12.68;;;;;;;15.44;36.71;101070.28;5085984;28;20079;-72
2022/03/13 09:50:11;;;;;;;25.17;12.80;;;;;;;15.56;36.56;101065.34;5071392;28;20052;-75
2022/03/13 09:52:40;;;;;;;24.30;10.80;;;;;;;15.65;35.52;101066.38;5068954;28;20055;-72
2022/03/13 09:55:11;;;;;;;26.25;13.30;;;;;;;15.87;36.60;101070.38;5088853;28;20185;-73
2022/03/13 09:57:40;;;;;;;25.73;14.10;;;;;;;16.17;36.52;101078.63;5084905;28;20134;-75
2022/03/13 10:00:13;;;;;;;22.90;12.63;;;;;;;16.46;36.07;101076.91;5090912;28;20142;-72
2022/03/13 10:02:39;;;;;;;24.83;13.18;;;;;;;16.58;35.75;101081.06;5077333;28;20131;-75
2022/03/13 10:05:18;;;;;;;21.98;11.00;;;;;;;16.63;34.87;101077.75;5085628;28;20048;-74
2022/03/13 10:07:59;;;;;;;26.10;11.93;;;;;;;16.80;34.10;101073.81;5089512;28;20056;-77
2022/03/13 10:10:32;;;;;;;25.80;13.18;;;;;;;16.92;34.84;101065.56;5092543;28;20075;-72
2022/03/13 10:13:00;;;;;;;27.45;13.10;;;;;;;17.10;34.95;101077.16;5091712;28;20127;-76
2022/03/13 10:15:28;;;;;;;24.20;11.90;;;;;;;16.99;34.51;101067.41;5102194;28;20078;-72
2022/03/13 10:17:55;;;;;;;25.35;13.52;;;;;;;17.26;35.51;101063.22;5086898;28;20056;-74
2022/03/13 10:20:25;;;;;;;26.98;13.50;;;;;;;17.37;34.50;101076.94;5080320;28;20159;-74
2022/03/13 10:23:09;;;;;;;24.70;12.23;;;;;;;17.19;34.17;101080.16;5085131;28;20112;-74
2022/03/13 10:25:41;;;;;;;24.10;12.77;;;;;;;17.13;34.02;101069.91;5090167;28;20520;-74
2022/03/13 10:28:36;;;;;;;25.23;10.95;;;;;;;16.98;34.15;101068.66;5087059;28;20068;-73
2022/03/13 10:31:03;;;;;;;26.05;12.73;;;;;;;17.08;34.46;101064.84;5101140;28;20130;-74
2022/03/13 10:33:53;;;;;;;25.10;12.70;;;;;;;17.37;35.40;101065.75;5088606;28;20432;-76
2022/03/13 10:36:44;;;;;;;24.98;13.05;;;;;;;17.68;34.32;101062.22;5088391;28;20750;-75
2022/03/13 10:39:18;;;;;;;25.35;13.70;;;;;;;17.91;34.81;101058.44;5079499;28;20064;-75
2022/03/13 10:41:45;;;;;;;14.00;6.28;;;;;;;17.87;34.00;101060.56;5088840;28;20048;-78
2022/03/13 10:44:21;;;;;;;22.48;12.40;;;;;;;17.99;34.92;101054.25;5087042;28;20056;-75
2022/03/13 10:46:56;;;;;;;18.10;7.07;;;;;;;17.92;34.35;101054.41;5075652;28;20054;-71
2022/03/13 10:49:44;;;;;;;25.90;12.43;;;;;;;18.08;34.62;101051.59;5074214;28;20745;-72
2022/03/13 10:52:31;;;;;;;28.73;14.02;;;;;;;18.03;33.97;101052.16;5079923;28;20086;-72
2022/03/13 10:55:24;;;;;;;30.77;13.27;;;;;;;18.33;34.57;101040.53;5075912;28;20493;-74
2022/03/13 10:57:52;;;;;;;22.77;11.60;;;;;;;18.56;34.64;101031.09;5082230;28;20491;-71
2022/03/13 11:00:21;;;;;;;26.25;12.85;;;;;;;18.50;34.76;101030.06;5080271;28;20082;-72
2022/03/13 11:02:51;;;;;;;21.60;10.77;;;;;;;18.62;34.03;101030.09;5080923;28;20135;-74
2022/03/13 11:05:18;;;;;;;25.02;10.18;;;;;;;18.54;34.23;101037.16;5082554;28;20051;-75
2022/03/13 11:07:50;;;;;;;24.20;12.57;;;;;;;18.70;34.39;101030.69;5094772;28;20066;-74
2022/03/13 11:10:17;;;;;;;24.30;13.05;;;;;;;18.85;34.50;101029.81;5092127;28;20131;-72
2022/03/13 11:12:43;;;;;;;24.67;13.38;;;;;;;18.85;34.57;101027.00;5088547;28;20404;-73
2022/03/13 11:15:13;;;;;;;17.40;6.70;;;;;;;18.86;33.55;101028.59;5088411;28;20155;-74
2022/03/13 11:17:41;;;;;;;20.25;10.00;;;;;;;18.76;33.28;101024.06;5086621;28;20493;-71
2022/03/13 11:20:09;;;;;;;21.48;11.88;;;;;;;18.89;33.84;101019.28;5089788;28;20132;-74
2022/03/13 11:22:36;;;;;;;23.48;11.38;;;;;;;18.94;33.26;101018.75;5082478;28;20052;-74